createdAt,value
2022-11-18T00:04:01.701Z,146.50
2022-11-18T00:09:03.165Z,123.00
2022-11-18T00:14:18.358Z,49.00
2022-11-18T00:19:26.167Z,63.10
2022-11-18T00:29:30.441Z,33.60
2022-11-18T00:34:31.599Z,25.20
2022-11-18T00:39:32.963Z,25.80
2022-11-18T00:44:34.534Z,24.70
2022-11-18T00:49:35.786Z,25.80
2022-11-18T00:54:36.893Z,27.40
2022-11-18T00:59:38.018Z,30.50
2022-11-18T01:04:39.121Z,30.30
2022-11-18T01:09:40.313Z,29.30
2022-11-18T01:14:41.448Z,29.80
2022-11-18T01:19:45.717Z,29.80
2022-11-18T01:24:46.839Z,26.20
2022-11-18T01:29:48.052Z,29.00
2022-11-18T01:34:49.172Z,29.80
2022-11-18T01:39:50.376Z,30.40
2022-11-18T01:44:59.417Z,34.30
2022-11-18T01:50:01.681Z,61.30
2022-11-18T01:55:12.187Z,30.80
2022-11-18T02:00:13.886Z,32.70
2022-11-18T02:05:16.077Z,59.60
2022-11-18T02:10:22.013Z,37.10
2022-11-18T02:15:33.620Z,34.60
2022-11-18T02:20:41.539Z,34.80
2022-11-18T02:26:07.891Z,36.10
2022-11-18T02:31:21.645Z,40.40
2022-11-18T02:36:34.887Z,51.70
2022-11-18T02:41:39.119Z,34.80
2022-11-18T02:46:43.673Z,35.20
2022-11-18T02:51:47.182Z,51.90
2022-11-18T02:56:51.090Z,63.50
2022-11-18T03:01:53.453Z,30.90
2022-11-18T03:07:30.647Z,48.50
2022-11-18T03:12:35.234Z,40.40
2022-11-18T03:17:51.487Z,36.70
2022-11-18T03:22:59.794Z,33.50
2022-11-18T03:28:19.575Z,36.40
2022-11-18T03:33:28.208Z,36.20
2022-11-18T03:38:33.532Z,38.60
2022-11-18T03:43:39.483Z,32.60
2022-11-18T03:48:56.170Z,35.20
2022-11-18T03:54:03.027Z,32.10
2022-11-18T03:59:07.294Z,29.20
2022-11-18T04:04:09.682Z,30.70
2022-11-18T04:09:32.967Z,27.80
2022-11-18T04:14:37.706Z,28.00
2022-11-18T04:19:39.484Z,26.70
2022-11-18T04:24:41.057Z,26.80
2022-11-18T04:29:42.259Z,27.90
2022-11-18T04:34:43.474Z,30.20
2022-11-18T04:39:44.635Z,28.30
2022-11-18T04:44:45.793Z,28.30
2022-11-18T04:49:46.957Z,27.80
2022-11-18T04:54:48.217Z,31.40
2022-11-18T04:59:49.377Z,31.80
2022-11-18T05:04:50.548Z,32.20
2022-11-18T05:09:51.702Z,33.50
2022-11-18T05:14:52.864Z,36.30
2022-11-18T05:19:54.227Z,35.80
2022-11-18T05:24:55.393Z,37.20
2022-11-18T05:29:56.480Z,37.10
2022-11-18T05:34:57.968Z,38.30
2022-11-18T05:39:59.082Z,51.90
2022-11-18T05:45:00.205Z,40.10
2022-11-18T05:50:01.604Z,36.50
2022-11-18T05:55:03.990Z,36.50
2022-11-18T06:00:05.761Z,37.30
2022-11-18T06:05:14.445Z,37.70
2022-11-18T06:10:23.955Z,43.60
2022-11-18T06:15:34.704Z,39.50
2022-11-18T06:20:40.000Z,43.30
2022-11-18T06:25:41.282Z,42.30
2022-11-18T06:30:42.524Z,46.00
2022-11-18T06:35:44.270Z,42.90
2022-11-18T06:40:45.563Z,45.00
2022-11-18T06:46:09.335Z,42.60
2022-11-18T06:51:11.128Z,43.70
2022-11-18T06:56:14.541Z,49.40
2022-11-18T07:01:18.834Z,45.90
2022-11-18T07:06:25.770Z,39.80
2022-11-18T07:11:27.957Z,35.60
2022-11-18T07:16:29.224Z,34.50
2022-11-18T07:21:30.485Z,35.40
2022-11-18T07:26:31.647Z,30.50
2022-11-18T07:31:34.643Z,30.00
2022-11-18T07:36:36.627Z,31.90
2022-11-18T07:41:39.562Z,29.20
2022-11-18T07:46:40.632Z,29.30
2022-11-18T07:51:41.747Z,28.80
2022-11-18T07:56:43.417Z,26.50
2022-11-18T08:01:44.640Z,25.60
2022-11-18T08:06:48.085Z,25.80
2022-11-18T08:11:49.257Z,24.70
2022-11-18T08:16:50.416Z,24.20
2022-11-18T08:21:51.585Z,25.30
2022-11-18T08:26:52.736Z,25.20
2022-11-18T08:31:54.203Z,25.50
2022-11-18T08:36:55.446Z,26.90
2022-11-18T08:41:57.864Z,32.60
2022-11-18T08:46:58.958Z,25.80
2022-11-18T08:52:00.112Z,26.70
2022-11-18T08:57:01.340Z,24.00
2022-11-18T09:02:02.581Z,24.80
2022-11-18T09:07:03.782Z,27.60
2022-11-18T09:12:05.510Z,21.80
2022-11-18T09:17:06.808Z,22.40
2022-11-18T09:22:08.882Z,22.30
2022-11-18T09:27:16.407Z,25.00
2022-11-18T09:32:19.219Z,25.10
2022-11-18T09:37:20.458Z,27.60
2022-11-18T09:42:46.014Z,28.70
2022-11-18T09:47:47.963Z,27.40
2022-11-18T09:52:54.685Z,31.20
2022-11-18T09:57:58.408Z,26.40
2022-11-18T10:03:29.440Z,24.00
2022-11-18T10:08:51.485Z,24.20
2022-11-18T10:14:16.374Z,28.00
2022-11-18T10:19:47.157Z,25.20
2022-11-18T10:24:53.576Z,25.20
2022-11-18T10:29:57.366Z,34.70
2022-11-18T10:34:58.833Z,33.00
2022-11-18T10:40:02.860Z,34.10
2022-11-18T10:45:17.227Z,34.70
2022-11-18T10:50:30.011Z,36.10
2022-11-18T10:55:32.349Z,37.10
2022-11-18T11:00:33.510Z,39.50
2022-11-18T11:05:34.987Z,32.30
2022-11-18T11:10:36.458Z,33.80
2022-11-18T11:15:43.311Z,36.60
2022-11-18T11:20:45.217Z,48.10
2022-11-18T11:31:28.184Z,40.10
2022-11-18T11:37:17.489Z,39.50
2022-11-18T11:42:31.544Z,38.70
2022-11-18T11:47:49.395Z,33.30
2022-11-18T11:53:16.823Z,35.30
2022-11-18T11:58:34.311Z,105.50
2022-11-18T12:04:18.629Z,34.90
2022-11-18T12:09:38.856Z,36.90
2022-11-18T12:14:52.649Z,40.40
2022-11-18T12:19:53.963Z,38.60
2022-11-18T12:24:55.073Z,37.90
2022-11-18T12:30:00.893Z,50.20
2022-11-18T12:35:22.791Z,58.40
2022-11-18T12:40:50.553Z,36.70
2022-11-18T12:45:55.558Z,34.80
2022-11-18T12:50:59.044Z,48.30
2022-11-18T12:56:00.571Z,31.80
2022-11-18T13:01:11.098Z,33.40
2022-11-18T13:06:25.720Z,31.00
2022-11-18T13:11:45.432Z,29.10
2022-11-18T13:17:07.210Z,29.60
2022-11-18T13:22:36.631Z,30.50
2022-11-18T13:28:05.296Z,33.00
2022-11-18T13:33:11.152Z,31.60
2022-11-18T13:38:28.176Z,27.90
2022-11-18T13:43:31.811Z,28.70
2022-11-18T13:48:36.760Z,30.40
2022-11-18T13:53:40.580Z,31.90
2022-11-18T13:59:16.899Z,28.60
2022-11-18T14:04:26.706Z,30.70
2022-11-18T14:09:29.766Z,32.10
2022-11-18T14:14:34.173Z,31.20
2022-11-18T14:19:36.102Z,31.50
2022-11-18T14:24:37.355Z,34.00
2022-11-18T14:29:49.086Z,37.00
2022-11-18T14:35:00.066Z,38.40
2022-11-18T14:40:01.219Z,33.20
2022-11-18T14:45:02.643Z,29.40
2022-11-18T14:50:11.935Z,31.80
2022-11-18T14:55:13.095Z,35.00
2022-11-18T15:00:15.595Z,29.20
2022-11-18T15:05:16.889Z,29.50
2022-11-18T15:10:18.216Z,26.00
2022-11-18T15:15:19.610Z,36.40
2022-11-18T15:20:22.524Z,38.20
2022-11-18T15:25:23.667Z,27.90
2022-11-18T15:30:24.803Z,27.30
2022-11-18T15:35:25.966Z,24.40
2022-11-18T15:40:27.259Z,25.20
2022-11-18T15:45:28.387Z,25.70
2022-11-18T15:50:29.548Z,28.00
2022-11-18T15:55:30.810Z,32.90
2022-11-18T16:00:31.972Z,26.40
2022-11-18T16:05:33.130Z,30.30
2022-11-18T16:10:52.822Z,32.50
2022-11-18T16:15:53.907Z,29.80
2022-11-18T16:20:59.390Z,29.70
2022-11-18T16:26:00.506Z,34.70
2022-11-18T16:31:20.295Z,31.00
2022-11-18T16:36:26.689Z,36.80
2022-11-18T16:41:33.599Z,45.10
2022-11-18T16:46:37.300Z,35.80
2022-11-18T16:51:41.978Z,57.20
2022-11-18T16:56:43.317Z,37.40
2022-11-18T17:01:44.675Z,42.00
2022-11-18T17:06:46.880Z,136.50
2022-11-18T17:11:49.246Z,43.60
2022-11-18T17:16:51.640Z,37.60
2022-11-18T17:21:52.823Z,40.50
2022-11-18T17:26:54.722Z,39.70
2022-11-18T17:31:55.754Z,36.40
2022-11-18T17:37:01.572Z,45.60
2022-11-18T17:42:17.106Z,43.90
2022-11-18T17:47:18.258Z,33.20
2022-11-18T17:52:19.576Z,34.00
2022-11-18T17:57:20.684Z,34.70
2022-11-18T18:02:21.852Z,31.30
2022-11-18T18:07:23.375Z,28.00
2022-11-18T18:12:43.260Z,26.20
2022-11-18T18:17:46.609Z,37.40
2022-11-18T18:22:47.889Z,46.40
2022-11-18T18:27:48.939Z,39.40
2022-11-18T18:32:52.614Z,31.80
2022-11-18T18:37:54.237Z,30.60
2022-11-18T18:42:55.398Z,34.10
2022-11-18T18:48:02.056Z,24.60
2022-11-18T18:53:03.250Z,26.30
2022-11-18T18:58:04.325Z,28.80
2022-11-18T19:03:05.470Z,31.00
2022-11-18T19:08:06.570Z,23.90
2022-11-18T19:13:08.325Z,26.00
2022-11-18T19:18:09.589Z,25.10
2022-11-18T19:23:11.093Z,27.50
2022-11-18T19:28:12.188Z,25.60
2022-11-18T19:33:13.470Z,25.40
2022-11-18T19:38:14.549Z,24.60
2022-11-18T19:43:15.652Z,28.50
2022-11-18T19:48:16.926Z,25.60
2022-11-18T19:53:34.362Z,26.20
2022-11-18T19:58:37.586Z,51.00
2022-11-18T20:03:39.056Z,51.00
2022-11-18T20:08:40.519Z,26.70
2022-11-18T20:13:43.284Z,25.70
2022-11-18T20:18:47.162Z,21.20
2022-11-18T20:23:59.977Z,19.50
2022-11-18T20:29:01.803Z,22.60
2022-11-18T20:34:04.037Z,22.50
2022-11-18T20:39:13.290Z,27.20
2022-11-18T20:44:14.548Z,21.50
2022-11-18T20:49:15.610Z,21.80
2022-11-18T20:54:16.920Z,21.50
2022-11-18T20:59:18.270Z,20.90
2022-11-18T21:04:19.604Z,23.30
2022-11-18T21:09:21.175Z,22.60
2022-11-18T21:14:25.332Z,25.80
2022-11-18T21:19:28.211Z,30.80
2022-11-18T21:24:31.569Z,19.80
2022-11-18T21:29:32.977Z,19.50
2022-11-18T21:34:34.146Z,19.60
2022-11-18T21:39:35.183Z,23.80
2022-11-18T21:44:36.363Z,19.60
2022-11-18T21:49:37.401Z,20.00
2022-11-18T21:54:38.503Z,20.40
2022-11-18T21:59:39.736Z,20.20
2022-11-18T22:04:53.187Z,21.10
2022-11-18T22:09:54.756Z,21.40
2022-11-18T22:15:01.041Z,19.20
2022-11-18T22:20:02.303Z,16.20
2022-11-18T22:25:04.281Z,19.50
2022-11-18T22:30:06.680Z,16.50
2022-11-18T22:35:08.491Z,19.20
2022-11-18T22:40:10.332Z,17.90
2022-11-18T22:45:11.483Z,20.30
2022-11-18T22:50:12.646Z,21.20
2022-11-18T22:55:14.034Z,18.40
2022-11-18T23:00:16.243Z,19.40
2022-11-18T23:05:17.493Z,18.50
2022-11-18T23:10:18.592Z,19.00
2022-11-18T23:15:19.652Z,19.50
2022-11-18T23:20:21.345Z,19.20
2022-11-18T23:25:22.569Z,19.10
2022-11-18T23:30:23.772Z,19.10
2022-11-18T23:35:24.932Z,19.10
2022-11-18T23:40:27.978Z,19.60
2022-11-18T23:45:29.199Z,19.40
2022-11-18T23:50:33.974Z,17.50
2022-11-18T23:55:37.615Z,18.30
